createdAt,value
2018-11-04T00:01:04.004Z,39.67
2018-11-04T00:03:37.124Z,40.90
2018-11-04T00:06:08.365Z,38.30
2018-11-04T00:08:39.824Z,41.10
2018-11-04T00:11:11.404Z,40.07
2018-11-04T00:13:43.044Z,37.97
2018-11-04T00:16:13.944Z,40.60
2018-11-04T00:18:46.485Z,39.37
2018-11-04T00:21:17.525Z,39.80
2018-11-04T00:23:49.011Z,38.20
2018-11-04T00:26:19.805Z,38.67
2018-11-04T00:28:51.715Z,39.43
2018-11-04T00:31:21.875Z,39.87
2018-11-04T00:33:53.005Z,39.70
2018-11-04T00:36:24.856Z,38.53
2018-11-04T00:38:57.275Z,36.87
2018-11-04T00:41:28.354Z,37.37
2018-11-04T00:44:00.054Z,36.90
2018-11-04T00:46:31.084Z,35.83
2018-11-04T00:49:03.135Z,35.97
2018-11-04T00:51:34.584Z,35.57
2018-11-04T00:54:07.634Z,35.77
2018-11-04T00:56:39.034Z,35.13
2018-11-04T00:59:18.671Z,34.17
2018-11-04T01:01:50.513Z,35.53
2018-11-04T01:04:22.204Z,34.83
2018-11-04T01:06:55.006Z,33.80
2018-11-04T01:09:30.912Z,36.23
2018-11-04T01:12:11.356Z,36.23
2018-11-04T01:14:43.938Z,34.50
2018-11-04T01:17:15.137Z,35.40
2018-11-04T01:19:45.919Z,34.87
2018-11-04T01:22:16.758Z,34.67
2018-11-04T01:24:49.969Z,33.83
2018-11-04T01:27:21.189Z,35.67
2018-11-04T01:29:53.840Z,36.60
2018-11-04T01:32:25.551Z,35.10
2018-11-04T01:34:59.942Z,34.43
2018-11-04T01:37:39.272Z,32.67
2018-11-04T01:40:10.658Z,32.93
2018-11-04T01:42:46.864Z,34.07
2018-11-04T01:45:17.973Z,31.53
2018-11-04T01:47:49.874Z,32.43
2018-11-04T01:50:21.106Z,33.07
2018-11-04T01:52:57.105Z,29.33
2018-11-04T01:55:28.568Z,29.83
2018-11-04T01:57:59.556Z,30.07
2018-11-04T02:03:18.396Z,27.77
2018-11-04T02:05:49.685Z,28.27
2018-11-04T02:08:19.945Z,24.87
2018-11-04T02:10:51.586Z,23.33
2018-11-04T02:13:22.495Z,22.43
2018-11-04T02:16:02.445Z,20.37
2018-11-04T02:18:33.511Z,20.97
2018-11-04T02:21:05.692Z,22.73
2018-11-04T02:23:37.082Z,21.17
2018-11-04T02:26:08.642Z,20.73
2018-11-04T02:28:39.833Z,22.10
2018-11-04T02:31:11.684Z,19.70
2018-11-04T02:33:42.824Z,19.30
2018-11-04T02:36:14.394Z,17.47
2018-11-04T02:38:54.057Z,18.47
2018-11-04T02:41:26.546Z,19.70
2018-11-04T02:43:57.977Z,17.40
2018-11-04T02:46:29.316Z,18.50
2018-11-04T02:49:01.228Z,20.10
2018-11-04T02:51:32.519Z,18.87
2018-11-04T02:54:03.717Z,20.63
2018-11-04T02:56:34.177Z,18.47
2018-11-04T02:59:08.266Z,18.37
2018-11-04T03:01:40.027Z,18.77
2018-11-04T03:04:11.539Z,18.60
2018-11-04T03:06:44.236Z,19.57
2018-11-04T03:09:20.717Z,20.50
2018-11-04T03:12:00.876Z,17.67
2018-11-04T03:14:32.396Z,19.50
2018-11-04T03:17:04.396Z,17.03
2018-11-04T03:19:35.698Z,16.30
2018-11-04T03:22:08.436Z,16.80
2018-11-04T03:24:42.545Z,16.40
2018-11-04T03:27:13.477Z,14.80
2018-11-04T03:29:44.787Z,14.53
2018-11-04T03:32:17.138Z,13.50
2018-11-04T03:34:47.367Z,13.53
2018-11-04T03:37:26.796Z,14.13
2018-11-04T03:40:00.985Z,15.30
2018-11-04T03:42:33.135Z,15.57
2018-11-04T03:45:04.963Z,13.60
2018-11-04T03:47:41.689Z,13.33
2018-11-04T03:50:13.667Z,13.10
2018-11-04T03:52:44.929Z,13.70
2018-11-04T03:55:17.076Z,14.60
2018-11-04T03:57:48.767Z,13.03
2018-11-04T04:00:20.187Z,12.53
2018-11-04T04:02:51.907Z,13.70
2018-11-04T04:05:31.489Z,13.93
2018-11-04T04:08:03.039Z,13.13
2018-11-04T04:10:35.539Z,14.83
2018-11-04T04:13:09.338Z,14.37
2018-11-04T04:15:43.840Z,11.57
2018-11-04T04:18:15.459Z,13.70
2018-11-04T04:20:56.572Z,13.67
2018-11-04T04:23:28.657Z,12.60
2018-11-04T04:25:59.726Z,13.23
2018-11-04T04:28:30.275Z,13.17
2018-11-04T04:31:00.846Z,13.13
2018-11-04T04:33:33.365Z,12.10
2018-11-04T04:36:04.357Z,12.00
2018-11-04T04:38:36.246Z,11.67
2018-11-04T04:41:08.955Z,12.63
2018-11-04T04:43:40.565Z,12.73
2018-11-04T04:46:11.986Z,13.20
2018-11-04T04:48:43.559Z,14.20
2018-11-04T04:51:14.616Z,14.23
2018-11-04T04:53:47.085Z,13.13
2018-11-04T04:56:17.845Z,14.27
2018-11-04T04:58:48.905Z,13.73
2018-11-04T05:01:20.256Z,15.53
2018-11-04T05:03:51.476Z,17.87
2018-11-04T05:06:22.375Z,17.53
2018-11-04T05:08:53.916Z,16.10
2018-11-04T05:11:25.465Z,16.57
2018-11-04T05:13:58.044Z,14.60
2018-11-04T05:16:29.324Z,16.63
2018-11-04T05:19:09.133Z,16.70
2018-11-04T05:21:41.793Z,16.83
2018-11-04T05:24:15.832Z,16.93
2018-11-04T05:26:47.535Z,16.10
2018-11-04T05:29:28.027Z,14.83
2018-11-04T05:31:59.917Z,15.70
2018-11-04T05:34:40.397Z,14.50
2018-11-04T05:37:12.647Z,16.50
2018-11-04T05:39:46.907Z,14.37
2018-11-04T05:42:18.616Z,15.33
2018-11-04T05:44:58.477Z,16.50
2018-11-04T05:47:30.317Z,16.40
2018-11-04T05:50:04.260Z,16.00
2018-11-04T05:52:39.668Z,16.63
2018-11-04T05:55:12.886Z,16.57
2018-11-04T05:57:44.287Z,17.77
2018-11-04T06:00:17.288Z,17.10
2018-11-04T06:02:48.760Z,15.87
2018-11-04T06:05:20.269Z,16.10
2018-11-04T06:07:50.938Z,16.23
2018-11-04T06:10:22.714Z,16.17
2018-11-04T06:12:54.138Z,18.77
2018-11-04T06:15:25.554Z,16.80
2018-11-04T06:17:57.114Z,17.00
2018-11-04T06:20:33.355Z,16.87
2018-11-04T06:23:12.573Z,17.20
2018-11-04T06:25:50.475Z,16.47
2018-11-04T06:28:21.595Z,17.27
2018-11-04T06:30:53.430Z,15.83
2018-11-04T06:33:25.465Z,16.17
2018-11-04T06:35:57.014Z,18.37
2018-11-04T06:38:28.454Z,18.20
2018-11-04T06:40:59.856Z,18.00
2018-11-04T06:43:39.265Z,17.93
2018-11-04T06:46:10.583Z,19.47
2018-11-04T06:48:49.888Z,19.23
2018-11-04T06:51:21.859Z,20.87
2018-11-04T06:54:01.682Z,20.77
2018-11-04T06:56:34.101Z,19.97
2018-11-04T06:59:13.449Z,19.70
2018-11-04T07:01:45.359Z,17.93
2018-11-04T07:04:28.871Z,18.43
2018-11-04T07:06:59.828Z,17.37
2018-11-04T07:09:31.019Z,19.60
2018-11-04T07:12:03.069Z,21.03
2018-11-04T07:14:33.769Z,17.73
2018-11-04T07:17:04.939Z,17.57
2018-11-04T07:19:36.019Z,18.43
2018-11-04T07:22:07.789Z,16.20
2018-11-04T07:24:38.080Z,18.53
2018-11-04T07:27:08.698Z,16.83
2018-11-04T07:29:39.578Z,17.67
2018-11-04T07:32:11.200Z,16.97
2018-11-04T07:34:42.540Z,15.37
2018-11-04T07:37:12.974Z,16.80
2018-11-04T07:39:43.729Z,16.10
2018-11-04T07:42:20.928Z,15.03
2018-11-04T07:45:00.554Z,15.93
2018-11-04T07:47:33.374Z,14.03
2018-11-04T07:50:04.884Z,15.33
2018-11-04T07:52:36.653Z,16.47
2018-11-04T07:55:17.723Z,13.77
2018-11-04T07:57:48.581Z,16.37
2018-11-04T08:00:19.241Z,13.53
2018-11-04T08:02:51.918Z,14.20
2018-11-04T08:05:22.968Z,14.73
2018-11-04T08:07:54.912Z,16.63
2018-11-04T08:10:26.272Z,14.03
2018-11-04T08:12:59.222Z,13.97
2018-11-04T08:15:30.044Z,16.10
2018-11-04T08:18:00.933Z,15.80
2018-11-04T08:20:32.223Z,17.70
2018-11-04T08:23:03.259Z,18.17
2018-11-04T08:25:33.973Z,15.33
2018-11-04T08:28:05.323Z,16.90
2018-11-04T08:30:37.182Z,15.87
2018-11-04T08:33:09.031Z,14.67
2018-11-04T08:35:40.293Z,15.37
2018-11-04T08:38:10.833Z,16.33
2018-11-04T08:40:42.563Z,14.77
2018-11-04T08:43:14.034Z,15.30
2018-11-04T08:45:54.903Z,17.70
2018-11-04T08:48:26.847Z,13.43
2018-11-04T08:50:57.377Z,15.23
2018-11-04T08:53:31.896Z,14.27
2018-11-04T08:56:03.025Z,14.70
2018-11-04T08:58:34.813Z,14.33
2018-11-04T09:01:06.296Z,15.67
2018-11-04T09:03:37.545Z,15.53
2018-11-04T09:06:09.695Z,14.97
2018-11-04T09:08:40.925Z,15.13
2018-11-04T09:11:13.577Z,14.93
2018-11-04T09:13:45.056Z,15.17
2018-11-04T09:16:21.415Z,16.87
2018-11-04T09:18:52.445Z,14.27
2018-11-04T09:21:23.475Z,17.90
2018-11-04T09:23:54.675Z,15.90
2018-11-04T09:26:26.235Z,16.40
2018-11-04T09:28:57.922Z,17.20
2018-11-04T09:31:30.105Z,16.70
2018-11-04T09:34:00.795Z,16.50
2018-11-04T09:36:33.173Z,16.43
2018-11-04T09:39:11.796Z,17.30
2018-11-04T09:41:42.885Z,15.43
2018-11-04T09:44:14.076Z,14.33
2018-11-04T09:46:45.285Z,15.27
2018-11-04T09:49:16.955Z,16.10
2018-11-04T09:51:53.766Z,15.87
2018-11-04T09:54:25.345Z,14.87
2018-11-04T09:56:56.695Z,14.23
2018-11-04T09:59:30.926Z,14.80
2018-11-04T10:02:02.576Z,13.90
2018-11-04T10:04:34.185Z,18.73
2018-11-04T10:07:06.122Z,14.73
2018-11-04T10:09:45.667Z,14.93
2018-11-04T10:12:17.558Z,15.10
2018-11-04T10:14:57.121Z,15.53
2018-11-04T10:17:35.700Z,15.30
2018-11-04T10:20:09.187Z,14.33
2018-11-04T10:22:48.315Z,15.87
2018-11-04T10:25:28.332Z,15.20
2018-11-04T10:28:00.712Z,16.20
2018-11-04T10:30:32.317Z,15.53
2018-11-04T10:33:02.492Z,14.10
2018-11-04T10:35:34.314Z,15.13
2018-11-04T10:38:11.755Z,14.07
2018-11-04T10:40:49.495Z,15.93
2018-11-04T10:43:22.303Z,14.00
2018-11-04T10:46:00.454Z,16.60
2018-11-04T10:48:31.944Z,15.33
2018-11-04T10:51:03.062Z,15.27
2018-11-04T10:53:33.366Z,15.70
2018-11-04T10:56:05.031Z,15.57
2018-11-04T10:58:37.109Z,14.63
2018-11-04T11:01:09.903Z,15.20
2018-11-04T11:03:41.487Z,14.77
2018-11-04T11:06:13.874Z,14.33
2018-11-04T11:08:44.134Z,16.63
2018-11-04T11:11:15.963Z,15.23
2018-11-04T11:13:46.883Z,16.30
2018-11-04T11:16:18.874Z,15.17
2018-11-04T11:18:55.082Z,15.83
2018-11-04T11:21:26.414Z,15.13
2018-11-04T11:23:58.865Z,15.50
2018-11-04T11:26:29.636Z,14.93
2018-11-04T11:29:01.115Z,17.00
2018-11-04T11:31:32.335Z,15.40
2018-11-04T11:34:03.565Z,15.33
2018-11-04T11:36:35.875Z,15.37
2018-11-04T11:39:13.036Z,15.67
2018-11-04T11:41:44.315Z,14.40
2018-11-04T11:44:15.845Z,15.87
2018-11-04T11:46:51.465Z,14.73
2018-11-04T11:49:31.379Z,15.37
2018-11-04T11:52:06.968Z,14.37
2018-11-04T11:54:37.908Z,14.53
2018-11-04T11:57:09.259Z,13.73
2018-11-04T11:59:40.370Z,14.80
2018-11-04T12:02:11.956Z,13.57
2018-11-04T12:04:43.417Z,14.30
2018-11-04T12:07:15.545Z,14.60
2018-11-04T12:09:46.257Z,14.57
2018-11-04T12:12:18.919Z,14.83
2018-11-04T12:14:50.797Z,15.03
2018-11-04T12:17:21.643Z,15.60
2018-11-04T12:19:53.188Z,13.87
2018-11-04T12:22:25.157Z,16.47
2018-11-04T12:24:58.516Z,15.47
2018-11-04T12:27:38.706Z,16.27
2018-11-04T12:30:11.764Z,16.90
2018-11-04T12:32:43.635Z,15.23
2018-11-04T12:35:15.188Z,17.07
2018-11-04T12:37:47.525Z,15.80
2018-11-04T12:40:21.255Z,16.40
2018-11-04T12:42:52.545Z,17.63
2018-11-04T12:45:23.934Z,16.23
2018-11-04T12:47:55.810Z,17.50
2018-11-04T12:50:29.101Z,16.03
2018-11-04T12:52:59.626Z,16.13
2018-11-04T12:55:30.960Z,17.90
2018-11-04T12:58:03.896Z,16.23
2018-11-04T13:00:44.079Z,17.00
2018-11-04T13:03:14.966Z,18.77
2018-11-04T13:05:52.337Z,17.53
2018-11-04T13:08:24.296Z,17.20
2018-11-04T13:11:00.247Z,17.63
2018-11-04T13:13:32.179Z,17.40
2018-11-04T13:16:04.209Z,16.73
2018-11-04T13:18:35.792Z,16.40
2018-11-04T13:21:16.194Z,17.80
2018-11-04T13:23:47.851Z,16.70
2018-11-04T13:26:19.571Z,20.07
2018-11-04T13:28:51.876Z,18.77
2018-11-04T13:31:22.602Z,16.97
2018-11-04T13:34:02.260Z,17.07
2018-11-04T13:36:33.280Z,17.53
2018-11-04T13:39:06.000Z,19.40
2018-11-04T13:41:37.161Z,18.27
2018-11-04T13:44:08.234Z,18.67
2018-11-04T13:46:38.951Z,19.40
2018-11-04T13:49:11.266Z,19.40
2018-11-04T13:51:42.013Z,17.90
2018-11-04T13:54:13.612Z,18.10
2018-11-04T13:56:45.374Z,19.17
2018-11-04T13:59:16.580Z,18.20
2018-11-04T14:01:47.717Z,19.23
2018-11-04T14:04:19.657Z,19.13
2018-11-04T14:06:51.266Z,19.80
2018-11-04T14:09:23.937Z,19.00
2018-11-04T14:11:56.067Z,19.70
2018-11-04T14:14:27.049Z,19.03
2018-11-04T14:16:59.057Z,18.97
2018-11-04T14:19:30.817Z,21.23
2018-11-04T14:22:03.096Z,19.03
2018-11-04T14:24:33.938Z,19.50
2018-11-04T14:27:04.418Z,20.13
2018-11-04T14:29:35.395Z,19.80
2018-11-04T14:32:06.865Z,21.30
2018-11-04T14:34:38.027Z,20.50
2018-11-04T14:37:09.541Z,20.07
2018-11-04T14:39:42.327Z,20.30
2018-11-04T14:42:13.576Z,19.60
2018-11-04T14:44:44.346Z,21.80
2018-11-04T14:47:15.674Z,19.67
2018-11-04T14:49:48.055Z,20.53
2018-11-04T14:52:20.704Z,22.90
2018-11-04T14:54:51.866Z,19.33
2018-11-04T14:57:23.579Z,21.10
2018-11-04T14:59:55.288Z,22.43
2018-11-04T15:02:26.654Z,19.33
2018-11-04T15:05:01.727Z,19.10
2018-11-04T15:07:34.865Z,20.80
2018-11-04T15:10:06.316Z,20.87
2018-11-04T15:12:37.535Z,21.80
2018-11-04T15:15:10.172Z,20.40
2018-11-04T15:17:44.849Z,21.43
2018-11-04T15:20:15.727Z,19.50
2018-11-04T15:22:50.214Z,21.73
2018-11-04T15:25:22.147Z,19.20
2018-11-04T15:27:53.254Z,20.07
2018-11-04T15:30:24.515Z,21.10
2018-11-04T15:32:57.056Z,21.00
2018-11-04T15:35:28.965Z,23.73
2018-11-04T15:38:00.277Z,21.80
2018-11-04T15:40:31.436Z,22.70
2018-11-04T15:43:03.665Z,25.80
2018-11-04T15:45:34.161Z,21.90
2018-11-04T15:48:04.720Z,22.73
2018-11-04T15:50:35.464Z,23.27
2018-11-04T15:53:06.807Z,21.13
2018-11-04T15:55:37.955Z,20.93
2018-11-04T15:58:08.485Z,20.63
2018-11-04T16:00:40.336Z,21.33
2018-11-04T16:03:11.227Z,19.10
2018-11-04T16:05:42.867Z,20.60
2018-11-04T16:08:14.069Z,20.93
2018-11-04T16:10:47.215Z,20.53
2018-11-04T16:13:18.256Z,19.63
2018-11-04T16:15:49.062Z,21.97
2018-11-04T16:18:20.029Z,20.57
2018-11-04T16:20:51.710Z,19.87
2018-11-04T16:23:22.441Z,19.70
2018-11-04T16:25:53.278Z,22.27
2018-11-04T16:28:24.365Z,20.30
2018-11-04T16:30:56.936Z,21.17
2018-11-04T16:33:27.862Z,20.70
2018-11-04T16:35:58.655Z,21.30
2018-11-04T16:38:30.356Z,21.10
2018-11-04T16:41:01.135Z,21.17
2018-11-04T16:43:33.888Z,22.40
2018-11-04T16:46:05.196Z,20.83
2018-11-04T16:48:35.607Z,23.23
2018-11-04T16:51:18.616Z,21.17
2018-11-04T16:53:50.060Z,23.17
2018-11-04T16:56:21.531Z,22.83
2018-11-04T16:58:52.980Z,23.13
2018-11-04T17:01:24.611Z,22.43
2018-11-04T17:03:56.139Z,24.57
2018-11-04T17:06:27.695Z,34.30
2018-11-04T17:08:58.516Z,29.87
2018-11-04T17:11:32.556Z,35.07
2018-11-04T17:14:03.811Z,35.87
2018-11-04T17:16:35.068Z,25.90
2018-11-04T17:19:06.062Z,22.80
2018-11-04T17:21:37.280Z,21.87
2018-11-04T17:24:08.640Z,24.40
2018-11-04T17:26:39.564Z,23.10
2018-11-04T17:29:11.251Z,22.33
2018-11-04T17:31:44.420Z,22.07
2018-11-04T17:34:16.003Z,22.97
2018-11-04T17:36:47.782Z,26.10
2018-11-04T17:39:19.210Z,27.30
2018-11-04T17:41:54.791Z,23.40
2018-11-04T17:44:25.890Z,23.30
2018-11-04T17:46:57.622Z,23.47
2018-11-04T17:49:29.471Z,25.47
2018-11-04T17:52:02.081Z,23.70
2018-11-04T17:54:33.332Z,22.43
2018-11-04T17:57:04.940Z,23.43
2018-11-04T17:59:35.891Z,23.97
2018-11-04T18:02:08.000Z,21.90
2018-11-04T18:04:40.122Z,22.77
2018-11-04T18:07:12.065Z,22.43
2018-11-04T18:09:44.151Z,22.67
2018-11-04T18:12:28.050Z,21.57
2018-11-04T18:14:59.480Z,22.07
2018-11-04T18:17:31.270Z,22.33
2018-11-04T18:20:02.750Z,23.53
2018-11-04T18:22:34.331Z,20.90
2018-11-04T18:25:05.641Z,21.77
2018-11-04T18:27:36.820Z,21.57
2018-11-04T18:30:10.090Z,19.17
2018-11-04T18:32:43.260Z,22.40
2018-11-04T18:35:14.941Z,24.17
2018-11-04T18:37:46.941Z,21.20
2018-11-04T18:40:19.703Z,21.33
2018-11-04T18:42:51.399Z,21.97
2018-11-04T18:45:22.640Z,22.97
2018-11-04T18:47:54.151Z,22.37
2018-11-04T18:50:26.936Z,24.47
2018-11-04T18:53:00.273Z,23.33
2018-11-04T18:55:31.640Z,23.00
2018-11-04T18:58:02.971Z,25.70
2018-11-04T19:00:35.420Z,24.10
2018-11-04T19:03:08.460Z,23.17
2018-11-04T19:05:39.647Z,24.93
2018-11-04T19:08:12.471Z,23.97
2018-11-04T19:10:43.651Z,23.57
2018-11-04T19:13:15.240Z,25.60
2018-11-04T19:15:47.512Z,23.97
2018-11-04T19:18:20.151Z,26.37
2018-11-04T19:20:53.021Z,21.40
2018-11-04T19:23:24.511Z,23.33
2018-11-04T19:25:56.310Z,24.57
2018-11-04T19:28:29.081Z,23.47
2018-11-04T19:31:00.433Z,27.33
2018-11-04T19:33:32.153Z,28.63
2018-11-04T19:36:03.324Z,26.63
2018-11-04T19:38:35.020Z,26.53
2018-11-04T19:41:05.771Z,26.33
2018-11-04T19:43:37.051Z,25.83
2018-11-04T19:46:08.320Z,29.80
2018-11-04T19:48:41.830Z,30.60
2018-11-04T19:51:14.631Z,31.43
2018-11-04T19:53:46.051Z,29.33
2018-11-04T19:56:17.041Z,31.13
2018-11-04T19:58:48.831Z,27.83
2018-11-04T20:01:20.620Z,31.60
2018-11-04T20:03:52.241Z,30.73
2018-11-04T20:06:23.796Z,32.27
2018-11-04T20:08:59.891Z,30.27
2018-11-04T20:11:31.740Z,30.10
2018-11-04T20:14:07.530Z,28.20
2018-11-04T20:16:38.470Z,25.80
2018-11-04T20:19:14.658Z,25.33
2018-11-04T20:21:46.140Z,27.47
2018-11-04T20:24:22.800Z,27.07
2018-11-04T20:26:54.280Z,25.93
2018-11-04T20:29:26.621Z,27.10
2018-11-04T20:32:02.302Z,30.80
2018-11-04T20:34:34.446Z,29.13
2018-11-04T20:37:06.961Z,32.13
2018-11-04T20:39:44.551Z,29.10
2018-11-04T20:42:21.330Z,29.23
2018-11-04T20:44:53.851Z,30.77
2018-11-04T20:47:30.230Z,28.80
2018-11-04T20:50:06.730Z,28.87
2018-11-04T20:52:37.690Z,30.30
2018-11-04T20:55:09.150Z,30.17
2018-11-04T20:57:45.531Z,28.73
2018-11-04T21:00:17.650Z,31.80
2018-11-04T21:02:49.273Z,27.10
2018-11-04T21:05:20.570Z,28.30
2018-11-04T21:07:52.920Z,26.80
2018-11-04T21:10:24.500Z,28.50
2018-11-04T21:12:55.660Z,31.30
2018-11-04T21:15:27.651Z,28.07
2018-11-04T21:17:58.659Z,26.77
2018-11-04T21:20:30.820Z,26.67
2018-11-04T21:23:01.962Z,25.70
2018-11-04T21:25:33.976Z,26.93
2018-11-04T21:28:05.286Z,25.80
2018-11-04T21:30:37.080Z,27.43
2018-11-04T21:33:08.638Z,25.77
2018-11-04T21:35:40.080Z,26.57
2018-11-04T21:38:11.441Z,29.63
2018-11-04T21:40:43.805Z,28.13
2018-11-04T21:43:14.978Z,30.20
2018-11-04T21:45:45.795Z,31.20
2018-11-04T21:48:17.190Z,29.93
2018-11-04T21:50:48.500Z,30.07
2018-11-04T21:53:19.432Z,30.93
2018-11-04T21:55:50.856Z,29.73
2018-11-04T21:58:22.152Z,27.70
2018-11-04T22:00:55.232Z,27.73
2018-11-04T22:03:26.203Z,27.50
2018-11-04T22:05:57.990Z,27.27
2018-11-04T22:08:28.270Z,28.17
2018-11-04T22:10:59.831Z,25.77
2018-11-04T22:13:31.395Z,27.07
2018-11-04T22:16:02.614Z,28.20
2018-11-04T22:18:34.320Z,27.57
2018-11-04T22:21:06.409Z,25.70
2018-11-04T22:23:39.421Z,26.43
2018-11-04T22:26:14.288Z,24.50
2018-11-04T22:28:47.931Z,23.73
2018-11-04T22:31:19.491Z,24.47
2018-11-04T22:33:50.612Z,24.30
2018-11-04T22:36:21.386Z,22.37
2018-11-04T22:38:52.031Z,22.33
2018-11-04T22:41:25.260Z,22.60
2018-11-04T22:43:55.701Z,20.57
2018-11-04T22:46:27.630Z,23.03
2018-11-04T22:48:58.301Z,19.27
2018-11-04T22:51:30.480Z,19.53
2018-11-04T22:54:01.201Z,17.23
2018-11-04T22:56:32.529Z,17.10
2018-11-04T22:59:03.550Z,15.27
2018-11-04T23:01:46.713Z,14.07
2018-11-04T23:04:22.351Z,13.97
2018-11-04T23:06:53.431Z,16.57
2018-11-04T23:09:25.780Z,14.47
2018-11-04T23:11:56.501Z,14.00
2018-11-04T23:14:27.764Z,14.27
2018-11-04T23:16:58.241Z,13.93
2018-11-04T23:19:30.421Z,13.63
2018-11-04T23:22:02.301Z,11.40
2018-11-04T23:24:35.122Z,12.90
2018-11-04T23:27:06.415Z,12.40
2018-11-04T23:29:36.931Z,10.03
2018-11-04T23:32:08.679Z,9.30
2018-11-04T23:34:40.320Z,7.27
2018-11-04T23:37:10.870Z,7.20
2018-11-04T23:39:41.290Z,5.93
2018-11-04T23:42:18.294Z,7.80
2018-11-04T23:44:49.941Z,7.60
2018-11-04T23:47:21.700Z,6.93
2018-11-04T23:49:52.242Z,9.73
2018-11-04T23:52:22.700Z,6.47
2018-11-04T23:54:54.090Z,6.70
2018-11-04T23:57:24.710Z,5.67
2018-11-04T23:59:56.380Z,6.10
